Time;durP1;ratioP1;P1;durP2;ratioP2;P2;SDS_P1;SDS_P2;PMS_P1;PMS_P2;Temp;Humidity;BMP_temperature;BMP_pressure;BME280_temperature;BME280_humidity;BME280_pressure;Samples;Min_cycle;Max_cycle;Signal;HPM_P1;HPM_P2
2021/11/24 00:00:34;;;;;;;;;;;;;;;4.62;76.70;99125.37;1644758;85;26118;-88
2021/11/24 00:03:04;;;;;;;;;;;;;;;4.61;76.76;99119.34;1650972;85;20521;-88
2021/11/24 00:05:30;;;;;;;;;;;;;;;4.57;76.82;99123.39;1641202;85;20269;-88
2021/11/24 00:07:59;;;;;;;;;;;;;;;4.55;76.86;99126.03;1641857;86;20547;-87
2021/11/24 00:10:29;;;;;;;;;;;;;;;4.55;76.94;99124.73;1693792;83;22071;-88
2021/11/24 00:12:53;;;;;;;;;;;;;;;4.56;76.97;99113.92;1689348;83;26004;-88
2021/11/24 00:15:20;;;;;;;;;;;;;;;4.57;77.05;99116.47;1688316;83;24465;-88
2021/11/24 00:17:46;;;;;;;;;;;;;;;4.56;77.09;99121.25;1693469;83;20257;-88
2021/11/24 00:20:12;;;;;;;;;;;;;;;4.56;77.15;99119.09;1688238;84;25561;-88
2021/11/24 00:22:39;;;;;;;;;;;;;;;4.60;77.20;99118.09;1682199;83;22255;-87
2021/11/24 00:25:07;;;;;;;;;;;;;;;4.57;77.25;99117.76;1696842;83;26143;-88
2021/11/24 00:27:33;;;;;;;;;;;;;;;4.46;77.27;99100.88;1694178;83;24538;-88
2021/11/24 00:29:59;;;;;;;;;;;;;;;4.56;77.32;99113.92;1688930;82;20341;-86
2021/11/24 00:32:25;;;;;;;;;;;;;;;4.55;77.38;99115.66;1689539;83;24943;-87
2021/11/24 00:34:51;;;;;;;;;;;;;;;4.53;77.44;99110.97;1696060;82;21970;-87
2021/11/24 00:37:20;;;;;;;;;;;;;;;4.58;77.51;99119.42;1699673;83;20986;-87
2021/11/24 00:39:46;;;;;;;;;;;;;;;4.58;77.56;99111.65;1676308;84;24423;-88
2021/11/24 00:42:12;;;;;;;;;;;;;;;4.57;77.64;99109.98;1691653;82;20214;-87
2021/11/24 00:44:38;;;;;;;;;;;;;;;4.58;77.70;99111.65;1676979;83;20580;-87
2021/11/24 00:47:04;;;;;;;;;;;;;;;4.58;77.74;99109.06;1683457;83;22358;-87
2021/11/24 00:49:30;;;;;;;;;;;;;;;4.57;77.80;99103.50;1698765;83;26158;-87
2021/11/24 00:51:56;;;;;;;;;;;;;;;4.56;77.85;99100.95;1698969;83;24452;-86
2021/11/24 00:54:22;;;;;;;;;;;;;;;4.55;77.86;99101.85;1694131;82;20501;-87
2021/11/24 00:56:48;;;;;;;;;;;;;;;4.52;77.87;99107.16;1695392;83;20292;-87
2021/11/24 00:59:14;;;;;;;;;;;;;;;4.47;77.91;99103.40;1693434;82;22249;-86
2021/11/24 01:01:41;;;;;;;;;;;;;;;4.49;77.92;99108.09;1692016;82;21084;-87
2021/11/24 01:04:07;;;;;;;;;;;;;;;4.50;77.96;99110.23;1688600;83;24624;-86
2021/11/24 01:06:33;;;;;;;;;;;;;;;4.50;78.01;99120.60;1685628;84;20297;-86
2021/11/24 01:09:00;;;;;;;;;;;;;;;4.47;78.05;99117.66;1688576;84;20517;-87
2021/11/24 01:11:26;;;;;;;;;;;;;;;4.44;78.08;99115.63;1688438;83;22874;-87
2021/11/24 01:13:58;;;;;;;;;;;;;;;4.43;78.16;99118.66;1697388;83;26813;-87
2021/11/24 01:16:24;;;;;;;;;;;;;;;4.46;78.20;99119.88;1699259;83;24565;-87
2021/11/24 01:18:50;;;;;;;;;;;;;;;4.51;78.26;99117.97;1698552;83;20295;-86
2021/11/24 01:21:16;;;;;;;;;;;;;;;4.53;78.35;99114.00;1695034;83;24868;-87
2021/11/24 01:23:45;;;;;;;;;;;;;;;4.58;78.43;99112.95;1694404;83;22131;-87
2021/11/24 01:26:11;;;;;;;;;;;;;;;4.60;78.50;99109.86;1698454;83;25970;-86
2021/11/24 01:28:40;;;;;;;;;;;;;;;4.60;78.56;99103.83;1693376;83;25186;-87
2021/11/24 01:31:06;;;;;;;;;;;;;;;4.62;78.62;99100.30;1700536;82;20318;-87
2021/11/24 01:33:32;;;;;;;;;;;;;;;4.63;78.69;99094.67;1688588;83;24770;-87
2021/11/24 01:35:58;;;;;;;;;;;;;;;4.64;78.75;99099.77;1696725;82;22127;-87
2021/11/24 01:38:26;;;;;;;;;;;;;;;4.66;78.77;99101.47;1699349;83;23401;-87
2021/11/24 01:40:52;;;;;;;;;;;;;;;4.67;78.82;99106.61;1700052;83;24308;-87
2021/11/24 01:43:18;;;;;;;;;;;;;;;4.62;78.86;99101.59;1689552;83;20222;-87
2021/11/24 01:45:45;;;;;;;;;;;;;;;4.64;78.89;99097.19;1697322;83;20307;-87
2021/11/24 01:48:11;;;;;;;;;;;;;;;4.66;78.95;99097.14;1695624;83;21968;-87
2021/11/24 01:50:43;;;;;;;;;;;;;;;4.64;78.98;99098.48;1699871;82;26120;-87
2021/11/24 01:53:15;;;;;;;;;;;;;;;4.65;79.03;99092.84;1674450;83;25251;-88
2021/11/24 01:55:41;;;;;;;;;;;;;;;4.66;79.08;99098.88;1682591;82;20245;-87
2021/11/24 01:58:08;;;;;;;;;;;;;;;4.65;79.11;99096.73;1700907;83;24755;-88
2021/11/24 02:00:37;;;;;;;;;;;;;;;4.72;79.14;99092.19;1689844;83;22096;-87
2021/11/24 02:03:05;;;;;;;;;;;;;;;4.76;79.20;99101.53;1690098;83;26030;-87
2021/11/24 02:05:31;;;;;;;;;;;;;;;4.74;79.25;99105.50;1693389;82;24480;-87
2021/11/24 02:07:57;;;;;;;;;;;;;;;4.72;79.29;99103.41;1675840;84;20223;-88
2021/11/24 02:10:29;;;;;;;;;;;;;;;4.70;79.33;99110.83;1689139;82;20229;-88
2021/11/24 02:12:55;;;;;;;;;;;;;;;4.68;79.36;99112.64;1696210;83;22469;-86
2021/11/24 02:15:21;;;;;;;;;;;;;;;4.70;79.41;99116.01;1701700;82;21786;-86
2021/11/24 02:17:47;;;;;;;;;;;;;;;4.68;79.46;99110.05;1689607;83;24485;-87
2021/11/24 02:20:16;;;;;;;;;;;;;;;4.65;79.50;99108.40;1700178;83;20242;-87
2021/11/24 02:22:45;;;;;;;;;;;;;;;4.61;79.55;99106.38;1676700;83;24861;-87
2021/11/24 02:25:11;;;;;;;;;;;;;;;4.65;79.59;99104.52;1680005;83;22126;-87
2021/11/24 02:27:37;;;;;;;;;;;;;;;4.73;79.66;99100.36;1695045;83;26674;-87
2021/11/24 02:30:04;;;;;;;;;;;;;;;4.77;79.72;99100.20;1689448;83;24638;-86
2021/11/24 02:32:30;;;;;;;;;;;;;;;4.80;79.79;99099.25;1688924;83;20246;-86
2021/11/24 02:34:56;;;;;;;;;;;;;;;4.75;79.85;99097.25;1694951;83;25501;-86
2021/11/24 02:37:22;;;;;;;;;;;;;;;4.74;79.91;99087.80;1694657;83;20277;-87
2021/11/24 02:39:49;;;;;;;;;;;;;;;4.80;79.96;99088.88;1692146;83;26284;-87
2021/11/24 02:42:15;;;;;;;;;;;;;;;4.82;80.02;99087.91;1691444;83;25122;-87
2021/11/24 02:44:44;;;;;;;;;;;;;;;4.85;80.10;99082.62;1696847;83;20280;-87
2021/11/24 02:47:15;;;;;;;;;;;;;;;4.93;80.16;99084.47;1695313;82;25562;-87
2021/11/24 02:49:45;;;;;;;;;;;;;;;5.01;80.20;99082.91;1701105;82;21484;-88
2021/11/24 02:52:13;;;;;;;;;;;;;;;5.05;80.21;99080.14;1697092;83;26107;-88
2021/11/24 02:54:44;;;;;;;;;;;;;;;5.12;80.24;99087.25;1694986;83;24512;-88
2021/11/24 02:57:12;;;;;;;;;;;;;;;5.11;80.24;99079.06;1696033;83;20249;-88
2021/11/24 02:59:40;;;;;;;;;;;;;;;5.11;80.24;99081.66;1696265;83;25065;-87
2021/11/24 03:02:07;;;;;;;;;;;;;;;5.04;80.22;99081.48;1695823;83;21969;-88
2021/11/24 03:04:39;;;;;;;;;;;;;;;5.01;80.22;99087.65;1697110;83;26089;-88
2021/11/24 03:07:05;;;;;;;;;;;;;;;5.00;80.23;99079.91;1698001;83;24536;-87
2021/11/24 03:09:32;;;;;;;;;;;;;;;5.01;80.22;99083.76;1695198;83;20345;-87
2021/11/24 03:11:58;;;;;;;;;;;;;;;5.00;80.23;99075.58;1688252;83;24808;-87
2021/11/24 03:14:26;;;;;;;;;;;;;;;4.93;80.23;99074.10;1685967;83;21999;-88
2021/11/24 03:16:53;;;;;;;;;;;;;;;4.87;80.24;99066.98;1687448;83;26238;-87
2021/11/24 03:19:19;;;;;;;;;;;;;;;4.90;80.24;99072.94;1686383;82;24484;-87
2021/11/24 03:21:45;;;;;;;;;;;;;;;4.92;80.25;99073.70;1684064;83;20346;-87
2021/11/24 03:24:11;;;;;;;;;;;;;;;4.92;80.24;99072.85;1693566;82;24821;-86
2021/11/24 03:26:37;;;;;;;;;;;;;;;4.92;80.28;99072.41;1693891;83;22910;-87
2021/11/24 03:29:03;;;;;;;;;;;;;;;4.88;80.29;99072.13;1677084;83;21159;-88
2021/11/24 03:31:33;;;;;;;;;;;;;;;4.86;80.29;99071.33;1689594;83;24629;-87
2021/11/24 03:34:00;;;;;;;;;;;;;;;4.78;80.28;99068.19;1688322;83;20623;-87
2021/11/24 03:36:29;;;;;;;;;;;;;;;4.71;80.30;99069.75;1679299;82;25788;-88
2021/11/24 03:38:55;;;;;;;;;;;;;;;4.64;80.28;99067.37;1681646;83;22011;-87
2021/11/24 03:41:23;;;;;;;;;;;;;;;4.65;80.29;99066.92;1679620;83;21147;-86
2021/11/24 03:43:53;;;;;;;;;;;;;;;4.63;80.31;99063.11;1694743;83;24468;-86
2021/11/24 03:46:19;;;;;;;;;;;;;;;4.61;80.33;99063.61;1690186;83;20238;-86
2021/11/24 03:48:45;;;;;;;;;;;;;;;4.57;80.33;99059.44;1694712;83;24930;-86
2021/11/24 03:51:11;;;;;;;;;;;;;;;4.57;80.39;99054.26;1689360;83;22086;-87
2021/11/24 03:53:40;;;;;;;;;;;;;;;4.62;80.42;99053.64;1691521;83;27432;-86
2021/11/24 03:56:05;;;;;;;;;;;;;;;4.68;80.47;99055.61;1695786;82;24487;-87
2021/11/24 03:58:31;;;;;;;;;;;;;;;4.68;80.49;99049.98;1701399;83;20806;-87
2021/11/24 04:00:57;;;;;;;;;;;;;;;4.70;80.55;99046.86;1698013;83;25502;-87
2021/11/24 04:03:23;;;;;;;;;;;;;;;4.73;80.60;99049.81;1698832;83;22171;-87
2021/11/24 04:05:55;;;;;;;;;;;;;;;4.66;80.61;99049.63;1690571;83;26011;-87
2021/11/24 04:08:26;;;;;;;;;;;;;;;4.66;80.65;99050.92;1684241;83;24438;-87
2021/11/24 04:10:52;;;;;;;;;;;;;;;4.63;80.65;99052.75;1697882;83;20207;-86
2021/11/24 04:13:21;;;;;;;;;;;;;;;4.58;80.68;99043.44;1686513;82;24874;-86
2021/11/24 04:15:47;;;;;;;;;;;;;;;4.60;80.69;99037.28;1694393;82;22817;-86
2021/11/24 04:18:13;;;;;;;;;;;;;;;4.60;80.75;99041.17;1693376;82;21147;-87
2021/11/24 04:20:39;;;;;;;;;;;;;;;4.63;80.77;99037.64;1694834;83;24555;-87
2021/11/24 04:23:05;;;;;;;;;;;;;;;4.63;80.83;99037.19;1670281;84;20184;-86
2021/11/24 04:25:31;;;;;;;;;;;;;;;4.60;80.87;99041.17;1695808;83;25588;-86
2021/11/24 04:28:03;;;;;;;;;;;;;;;4.55;80.89;99039.64;1719695;81;20171;-87
2021/11/24 04:30:33;;;;;;;;;;;;;;;4.51;80.90;99047.99;1695690;83;25990;-86
2021/11/24 04:32:57;;;;;;;;;;;;;;;4.52;80.92;99043.21;1684590;82;24606;-87
2021/11/24 04:35:26;;;;;;;;;;;;;;;4.58;80.96;99044.73;1691783;82;20288;-86
2021/11/24 04:37:52;;;;;;;;;;;;;;;4.59;81.04;99035.59;1689114;83;24758;-87
2021/11/24 04:40:22;;;;;;;;;;;;;;;4.60;81.10;99042.47;1695369;82;22225;-88
2021/11/24 04:42:49;;;;;;;;;;;;;;;4.61;81.16;99041.58;1693797;82;26809;-87
2021/11/24 04:45:20;;;;;;;;;;;;;;;4.64;81.19;99036.71;1683020;82;25320;-87
2021/11/24 04:47:48;;;;;;;;;;;;;;;4.64;81.24;99037.56;1689276;83;20696;-88
2021/11/24 04:50:15;;;;;;;;;;;;;;;4.66;81.27;99033.63;1686569;83;24799;-87
2021/11/24 04:52:42;;;;;;;;;;;;;;;4.65;81.29;99035.81;1692855;83;22024;-87
2021/11/24 04:55:10;;;;;;;;;;;;;;;4.66;81.34;99031.48;1690283;82;21577;-86
2021/11/24 04:57:36;;;;;;;;;;;;;;;4.62;81.37;99026.87;1692847;83;24065;-86
2021/11/24 05:00:06;;;;;;;;;;;;;;;4.56;81.37;99020.61;1701212;83;20284;-87
2021/11/24 05:02:31;;;;;;;;;;;;;;;4.52;81.36;99025.52;1701678;82;24757;-87
2021/11/24 05:04:57;;;;;;;;;;;;;;;4.50;81.38;99016.94;1685721;83;20950;-86
2021/11/24 05:07:24;;;;;;;;;;;;;;;4.51;81.38;99014.30;1665324;84;26077;-87
2021/11/24 05:09:50;;;;;;;;;;;;;;;4.54;81.41;99018.51;1681061;83;24512;-87
2021/11/24 05:12:16;;;;;;;;;;;;;;;4.54;81.44;99016.77;1676447;83;20282;-87
2021/11/24 05:14:44;;;;;;;;;;;;;;;4.62;81.48;99015.20;1693100;83;25502;-87
2021/11/24 05:17:13;;;;;;;;;;;;;;;4.64;81.52;99014.23;1697006;83;22071;-87
2021/11/24 05:19:38;;;;;;;;;;;;;;;4.64;81.54;99012.94;1698729;82;26843;-86
2021/11/24 05:22:05;;;;;;;;;;;;;;;4.61;81.58;99013.06;1692687;83;24478;-87
2021/11/24 05:24:31;;;;;;;;;;;;;;;4.59;81.59;99012.70;1695208;82;20631;-87
2021/11/24 05:27:01;;;;;;;;;;;;;;;4.58;81.59;99014.45;1700608;82;24778;-86
2021/11/24 05:29:26;;;;;;;;;;;;;;;4.60;81.62;99015.70;1684746;83;20305;-87
2021/11/24 05:31:52;;;;;;;;;;;;;;;4.59;81.64;99012.26;1655800;84;21541;-87
2021/11/24 05:34:18;;;;;;;;;;;;;;;4.60;81.66;99015.25;1686390;83;20264;-87
2021/11/24 05:36:45;;;;;;;;;;;;;;;4.59;81.69;99020.03;1693461;84;20206;-87
2021/11/24 05:39:11;;;;;;;;;;;;;;;4.58;81.72;99024.82;1690600;84;25561;-87
2021/11/24 05:41:41;;;;;;;;;;;;;;;4.57;81.72;99022.30;1685342;84;22051;-87
2021/11/24 05:44:25;;;;;;;;;;;;;;;4.57;81.72;99021.86;1688806;83;26072;-87
2021/11/24 05:47:01;;;;;;;;;;;;;;;4.60;81.71;99022.18;1690394;82;24419;-87
2021/11/24 05:49:28;;;;;;;;;;;;;;;4.62;81.74;99022.98;1699179;82;20351;-87
2021/11/24 05:51:57;;;;;;;;;;;;;;;4.62;81.78;99021.69;1686296;83;24985;-87
2021/11/24 05:54:23;;;;;;;;;;;;;;;4.57;81.76;99021.86;1694615;84;22818;-87
2021/11/24 05:56:49;;;;;;;;;;;;;;;4.54;81.77;99021.95;1697882;83;25992;-87
2021/11/24 05:59:22;;;;;;;;;;;;;;;4.55;81.77;99026.23;1727562;81;25139;-87
2021/11/24 06:01:48;;;;;;;;;;;;;;;4.60;81.78;99021.73;1695783;83;20297;-88
2021/11/24 06:04:15;;;;;;;;;;;;;;;4.58;81.76;99019.63;1681331;83;20729;-88
2021/11/24 06:06:41;;;;;;;;;;;;;;;4.57;81.77;99018.42;1699040;83;21965;-88
2021/11/24 06:09:10;;;;;;;;;;;;;;;4.52;81.73;99014.70;1675010;82;26030;-87
2021/11/24 06:11:38;;;;;;;;;;;;;;;4.55;81.74;99021.50;1688087;83;24467;-88
2021/11/24 06:14:06;;;;;;;;;;;;;;;4.56;81.73;99016.72;1693103;82;20460;-88
2021/11/24 06:16:32;;;;;;;;;;;;;;;4.55;81.73;99018.46;1688123;83;24833;-88
2021/11/24 06:18:58;;;;;;;;;;;;;;;4.57;81.77;99018.42;1693395;82;22044;-88
2021/11/24 06:21:24;;;;;;;;;;;;;;;4.58;81.77;99024.82;1685260;84;21068;-87
2021/11/24 06:23:50;;;;;;;;;;;;;;;4.54;81.81;99027.13;1693409;82;24450;-87
2021/11/24 06:26:22;;;;;;;;;;;;;;;4.52;81.84;99019.03;1671938;83;20150;-87
2021/11/24 06:28:50;;;;;;;;;;;;;;;4.52;81.83;99017.73;1698697;83;24818;-87
2021/11/24 06:31:17;;;;;;;;;;;;;;;4.54;81.83;99020.66;1692947;83;20182;-86
2021/11/24 06:33:44;;;;;;;;;;;;;;;4.56;81.85;99020.61;1675538;84;25980;-87
2021/11/24 06:36:10;;;;;;;;;;;;;;;4.59;81.86;99026.52;1695395;83;24516;-87
2021/11/24 06:38:39;;;;;;;;;;;;;;;4.60;81.86;99023.48;1693023;82;20290;-87
2021/11/24 06:41:05;;;;;;;;;;;;;;;4.62;81.91;99024.28;1691185;82;25566;-87
2021/11/24 06:43:31;;;;;;;;;;;;;;;4.67;81.93;99025.40;1688944;83;22800;-87
2021/11/24 06:45:57;;;;;;;;;;;;;;;4.73;81.95;99031.22;1690198;82;26903;-87
2021/11/24 06:48:23;;;;;;;;;;;;;;;4.76;81.99;99031.53;1695636;83;24512;-87
2021/11/24 06:50:49;;;;;;;;;;;;;;;4.80;82.02;99031.84;1693556;83;20489;-87
2021/11/24 06:53:17;;;;;;;;;;;;;;;4.82;82.03;99035.20;1698111;83;24806;-87
2021/11/24 06:55:48;;;;;;;;;;;;;;;4.82;82.03;99030.02;1689513;83;22403;-87
2021/11/24 06:58:23;;;;;;;;;;;;;;;4.83;82.03;99037.75;1691747;82;27452;-87
2021/11/24 07:00:49;;;;;;;;;;;;;;;4.85;82.02;99041.14;1700611;83;24536;-87
2021/11/24 07:03:15;;;;;;;;;;;;;;;4.84;82.01;99042.48;1696516;83;20491;-87
2021/11/24 07:05:45;;;;;;;;;;;;;;;4.85;81.98;99037.25;1705195;83;24766;-87
2021/11/24 07:08:11;;;;;;;;;;;;;;;4.88;81.98;99036.27;1694148;83;22015;-87
2021/11/24 07:10:37;;;;;;;;;;;;;;;4.86;81.94;99040.20;1697607;82;26114;-86
2021/11/24 07:13:04;;;;;;;;;;;;;;;4.82;81.91;99036.50;1694025;83;24678;-86
2021/11/24 07:15:32;;;;;;;;;;;;;;;4.86;81.91;99047.14;1694471;83;20231;-86
2021/11/24 07:17:59;;;;;;;;;;;;;;;4.89;81.89;99037.97;1712727;82;24907;-86
2021/11/24 07:20:25;;;;;;;;;;;;;;;4.92;81.86;99039.98;1695673;83;21970;-86
2021/11/24 07:22:53;;;;;;;;;;;;;;;4.92;81.86;99050.36;1682116;82;22019;-86
2021/11/24 07:25:19;;;;;;;;;;;;;;;4.90;81.80;99052.63;1686064;84;24454;-86
2021/11/24 07:27:46;;;;;;;;;;;;;;;4.89;81.76;99042.70;1689310;83;20558;-86
2021/11/24 07:30:12;;;;;;;;;;;;;;;4.87;81.73;99050.98;1694401;83;24770;-86
2021/11/24 07:32:38;;;;;;;;;;;;;;;4.82;81.70;99041.69;1698324;83;21992;-86
2021/11/24 07:35:06;;;;;;;;;;;;;;;4.83;81.66;99045.97;1695409;83;26075;-86
2021/11/24 07:37:32;;;;;;;;;;;;;;;4.85;81.64;99037.70;1693968;82;24347;-86
2021/11/24 07:39:58;;;;;;;;;;;;;;;4.88;81.61;99042.31;1698443;82;20276;-86
2021/11/24 07:42:26;;;;;;;;;;;;;;;4.93;81.58;99030.02;1669849;83;20467;-87
2021/11/24 07:44:52;;;;;;;;;;;;;;;5.01;81.55;99034.92;1692419;83;21958;-87
2021/11/24 07:47:19;;;;;;;;;;;;;;;5.10;81.57;99034.56;1692157;83;20997;-86
2021/11/24 07:49:45;;;;;;;;;;;;;;;5.08;81.57;99025.98;1694186;83;24443;-87
2021/11/24 07:52:12;;;;;;;;;;;;;;;5.03;81.54;99026.16;1697364;83;20222;-87
2021/11/24 07:54:38;;;;;;;;;;;;;;;5.09;81.50;99025.53;1693293;83;24748;-87
2021/11/24 07:57:11;;;;;;;;;;;;;;;5.13;81.47;99024.53;1680279;83;22193;-87
2021/11/24 07:59:37;;;;;;;;;;;;;;;5.13;81.42;99024.53;1687606;84;26052;-87
2021/11/24 08:02:04;;;;;;;;;;;;;;;5.18;81.38;99031.23;1689791;83;25445;-87
2021/11/24 08:04:30;;;;;;;;;;;;;;;5.20;81.34;99027.27;1699272;83;20537;-87
2021/11/24 08:06:59;;;;;;;;;;;;;;;5.21;81.27;99030.26;1676367;83;24752;-87
2021/11/24 08:09:24;;;;;;;;;;;;;;;5.18;81.22;99023.91;1697378;82;22019;-87
2021/11/24 08:11:51;;;;;;;;;;;;;;;5.19;81.15;99029.46;1729006;81;25908;-86
2021/11/24 08:14:17;;;;;;;;;;;;;;;5.21;81.08;99031.11;1696064;84;24508;-87
2021/11/24 08:16:43;;;;;;;;;;;;;;;5.20;81.04;99033.30;1688507;83;20242;-87
2021/11/24 08:19:09;;;;;;;;;;;;;;;5.21;80.99;99033.70;1687329;83;24909;-87
2021/11/24 08:21:35;;;;;;;;;;;;;;;5.21;80.89;99040.19;1685035;82;20823;-87
2021/11/24 08:24:03;;;;;;;;;;;;;;;5.19;80.80;99036.80;1681618;82;26784;-87
2021/11/24 08:26:30;;;;;;;;;;;;;;;5.28;80.71;99036.91;1678641;83;24539;-87
2021/11/24 08:28:58;;;;;;;;;;;;;;;5.35;80.68;99034.00;1682999;83;20264;-87
2021/11/24 08:31:24;;;;;;;;;;;;;;;5.38;80.66;99040.38;1697168;82;24878;-87
2021/11/24 08:33:49;;;;;;;;;;;;;;;5.38;80.63;99042.13;1682006;84;20828;-87
2021/11/24 08:36:16;;;;;;;;;;;;;;;5.36;80.56;99040.03;1682019;83;21069;-87
2021/11/24 08:38:42;;;;;;;;;;;;;;;5.31;80.46;99036.78;1679013;83;24485;-87
2021/11/24 08:41:11;;;;;;;;;;;;;;;5.32;80.37;99051.00;1685358;83;20162;-86
2021/11/24 08:43:36;;;;;;;;;;;;;;;5.34;80.30;99044.46;1684525;83;25741;-86
2021/11/24 08:46:02;;;;;;;;;;;;;;;5.27;80.17;99051.62;1695902;83;20288;-87
2021/11/24 08:48:34;;;;;;;;;;;;;;;5.28;80.03;99055.08;1695674;83;21024;-87
2021/11/24 08:50:58;;;;;;;;;;;;;;;5.29;79.95;99060.66;1692846;83;24491;-87
2021/11/24 08:53:25;;;;;;;;;;;;;;;5.28;79.88;99055.92;1689823;83;20663;-87
2021/11/24 08:55:51;;;;;;;;;;;;;;;5.27;79.77;99054.23;1693617;82;25540;-87
2021/11/24 08:58:18;;;;;;;;;;;;;;;5.27;79.65;99058.12;1691430;82;22163;-87
2021/11/24 09:00:44;;;;;;;;;;;;;;;5.32;79.58;99052.75;1683859;83;26027;-86
2021/11/24 09:03:10;;;;;;;;;;;;;;;5.34;79.52;99053.09;1679849;82;24475;-87
2021/11/24 09:05:37;;;;;;;;;;;;;;;5.37;79.49;99049.06;1692604;83;20273;-87
2021/11/24 09:08:04;;;;;;;;;;;;;;;5.38;79.43;99051.22;1736929;81;20537;-87
2021/11/24 09:10:31;;;;;;;;;;;;;;;5.41;79.36;99048.48;1697402;82;22058;-87
2021/11/24 09:12:58;;;;;;;;;;;;;;;5.41;79.29;99041.55;1695251;83;26034;-87
2021/11/24 09:15:25;;;;;;;;;;;;;;;5.43;79.23;99038.45;1688143;83;24684;-86
2021/11/24 09:17:51;;;;;;;;;;;;;;;5.41;79.15;99038.95;1684202;83;20408;-87
2021/11/24 09:20:17;;;;;;;;;;;;;;;5.46;79.06;99040.06;1687128;83;24809;-86
2021/11/24 09:22:48;;;;;;;;;;;;;;;5.49;79.01;99036.06;1690487;82;22032;-87
2021/11/24 09:25:17;;;;;;;;;;;;;;;5.53;78.94;99036.33;1695750;83;25977;-87
2021/11/24 09:30:24;;;;;;;;;;;;;;;5.50;78.80;99028.67;1693520;82;20170;-87
2021/11/24 09:32:50;;;;;;;;;;;;;;;5.46;78.66;99026.63;1694034;83;24775;-87
2021/11/24 09:35:16;;;;;;;;;;;;;;;5.45;78.55;99018.93;1698026;83;22007;-87
2021/11/24 09:37:42;;;;;;;;;;;;;;;5.50;78.46;99020.04;1691935;82;26179;-87
2021/11/24 09:40:10;;;;;;;;;;;;;;;5.54;78.41;99015.95;1693016;83;24741;-87
2021/11/24 09:42:38;;;;;;;;;;;;;;;5.53;78.35;99017.30;1698313;82;20361;-87
2021/11/24 09:45:05;;;;;;;;;;;;;;;5.57;78.29;99014.97;1702880;82;24850;-87
2021/11/24 09:47:32;;;;;;;;;;;;;;;5.61;78.23;99012.66;1692149;83;22106;-87
2021/11/24 09:49:59;;;;;;;;;;;;;;;5.60;78.16;99008.38;1697177;83;26283;-87
2021/11/24 09:52:27;;;;;;;;;;;;;;;5.58;78.08;99013.62;1665157;84;20362;-87
2021/11/24 09:54:55;;;;;;;;;;;;;;;5.62;77.98;99015.66;1680419;83;20194;-87
2021/11/24 09:57:25;;;;;;;;;;;;;;;5.59;77.88;99010.57;1674118;84;24761;-87
2021/11/24 09:59:51;;;;;;;;;;;;;;;5.65;77.80;99009.87;1690087;84;22012;-87
2021/11/24 10:02:18;;;;;;;;;;;;;;;5.68;77.71;99011.48;1689126;83;26022;-87
2021/11/24 10:04:47;;;;;;;;;;;;;;;5.70;77.64;99010.53;1675475;83;21388;-87
2021/11/24 10:07:14;;;;;;;;;;;;;;;5.74;77.57;99005.59;1686717;82;20251;-87
2021/11/24 10:09:41;;;;;;;;;;;;;;;5.80;77.50;99000.15;1696821;83;24791;-87
2021/11/24 10:12:08;;;;;;;;;;;;;;;5.79;77.44;98999.75;1685993;83;22453;-87
2021/11/24 10:14:35;;;;;;;;;;;;;;;5.82;77.36;99003.54;1684164;83;25975;-87
2021/11/24 10:17:05;;;;;;;;;;;;;;;5.88;77.28;98997.28;1691664;83;25479;-87
2021/11/24 10:19:31;;;;;;;;;;;;;;;5.89;77.17;98997.67;1693389;83;20238;-87
2021/11/24 10:22:02;;;;;;;;;;;;;;;5.92;77.10;98990.19;1693224;82;24776;-86
2021/11/24 10:24:32;;;;;;;;;;;;;;;5.94;77.02;98982.73;1663542;84;21815;-86
2021/11/24 10:27:02;;;;;;;;;;;;;;;6.03;76.97;98980.19;1695350;83;26054;-86
2021/11/24 10:29:28;;;;;;;;;;;;;;;6.11;76.92;98967.24;1698265;83;24660;-87
2021/11/24 10:31:58;;;;;;;;;;;;;;;6.16;76.89;98966.63;1696193;82;20262;-86
2021/11/24 10:34:26;;;;;;;;;;;;;;;6.20;76.80;98969.47;1681636;84;24766;-87
2021/11/24 10:36:55;;;;;;;;;;;;;;;6.21;76.69;98962.06;1697629;82;21659;-86
2021/11/24 10:39:21;;;;;;;;;;;;;;;6.24;76.58;98962.37;1694567;82;25668;-86
2021/11/24 10:41:49;;;;;;;;;;;;;;;6.29;76.49;98966.91;1695240;83;24429;-86
2021/11/24 10:44:23;;;;;;;;;;;;;;;6.28;76.36;98956.97;1698274;82;20460;-86
2021/11/24 10:46:51;;;;;;;;;;;;;;;6.28;76.25;98958.27;1722295;82;24696;-86
2021/11/24 10:49:17;;;;;;;;;;;;;;;6.28;76.11;98953.06;1684923;83;23057;-86
2021/11/24 10:51:44;;;;;;;;;;;;;;;6.29;75.98;98953.91;1684251;83;26009;-86
2021/11/24 10:54:18;;;;;;;;;;;;;;;6.36;75.87;98947.98;1694434;83;24638;-87
2021/11/24 10:57:01;;;;;;;;;;;;;;;6.42;75.82;98952.92;1661586;83;20190;-87
2021/11/24 10:59:31;;;;;;;;;;;;;;;6.45;75.73;98944.97;1675164;84;24845;-87
2021/11/24 11:02:17;;;;;;;;;;;;;;;6.39;75.56;98940.04;1697897;83;22676;-87
2021/11/24 11:04:57;;;;;;;;;;;;;;;6.37;75.38;98943.19;1688088;83;26008;-86
2021/11/24 11:07:23;;;;;;;;;;;;;;;6.35;75.21;98939.80;1694178;83;24470;-86
2021/11/24 11:09:51;;;;;;;;;;;;;;;6.31;75.04;98936.50;1699478;83;20243;-86
2021/11/24 11:12:17;;;;;;;;;;;;;;;6.34;74.90;98923.81;1691788;82;24895;-86
2021/11/24 11:14:43;;;;;;;;;;;;;;;6.29;74.73;98930.52;1695029;82;20320;-86
2021/11/24 11:17:14;;;;;;;;;;;;;;;6.26;74.57;98927.62;1665066;84;21088;-86
2021/11/24 11:19:40;;;;;;;;;;;;;;;6.27;74.43;98929.28;1692257;83;24543;-86
2021/11/24 11:22:07;;;;;;;;;;;;;;;6.29;74.31;98926.63;1689122;82;20238;-86
2021/11/24 11:24:33;;;;;;;;;;;;;;;6.29;74.24;98927.47;1696662;82;25627;-86
2021/11/24 11:26:59;;;;;;;;;;;;;;;6.34;74.13;98917.31;1686512;83;20829;-86
2021/11/24 11:29:25;;;;;;;;;;;;;;;6.41;74.09;98914.83;1697606;82;25524;-86
2021/11/24 11:31:51;;;;;;;;;;;;;;;6.44;74.02;98913.38;1696478;83;24498;-86
2021/11/24 11:34:17;;;;;;;;;;;;;;;6.44;73.90;98913.38;1686645;83;20364;-86
2021/11/24 11:36:44;;;;;;;;;;;;;;;6.43;73.79;98914.31;1691596;82;20291;-86
2021/11/24 11:39:10;;;;;;;;;;;;;;;6.41;73.68;98911.78;1694070;82;22219;-86
2021/11/24 11:41:37;;;;;;;;;;;;;;;6.39;73.54;98908.84;1685396;82;21145;-85
2021/11/24 11:44:04;;;;;;;;;;;;;;;6.37;73.40;98911.99;1683157;83;24496;-85
2021/11/24 11:46:44;;;;;;;;;;;;;;;6.35;73.26;98906.86;1685654;83;20257;-86
2021/11/24 11:49:13;;;;;;;;;;;;;;;6.32;73.13;98903.56;1669299;84;20198;-86
2021/11/24 11:51:39;;;;;;;;;;;;;;;6.29;73.03;98897.58;1698903;82;21821;-86
2021/11/24 11:54:07;;;;;;;;;;;;;;;6.26;72.90;98899.48;1678358;84;25598;-86
2021/11/24 11:56:34;;;;;;;;;;;;;;;6.22;72.75;98899.20;1691676;83;24543;-87
2021/11/24 11:59:05;;;;;;;;;;;;;;;6.15;72.60;98893.47;1702271;83;20188;-87
2021/11/24 12:01:35;;;;;;;;;;;;;;;6.14;72.48;98896.97;1688631;82;24806;-85
2021/11/24 12:04:03;;;;;;;;;;;;;;;6.13;72.41;98896.58;1687500;83;22091;-85
2021/11/24 12:06:48;;;;;;;;;;;;;;;6.18;72.37;98889.42;1685321;83;26001;-85
2021/11/24 12:09:20;;;;;;;;;;;;;;;6.16;72.34;98880.87;1693157;83;24681;-86
2021/11/24 12:14:46;;;;;;;;;;;;;;;6.14;72.17;98884.43;1687758;83;24805;-86
2021/11/24 12:17:30;;;;;;;;;;;;;;;6.09;72.08;98882.50;1694187;82;22007;-85
2021/11/24 12:20:01;;;;;;;;;;;;;;;6.07;72.01;98881.26;1685881;83;26010;-86
2021/11/24 12:22:49;;;;;;;;;;;;;;;6.01;71.89;98873.73;1690838;83;24672;-86
2021/11/24 12:25:30;;;;;;;;;;;;;;;5.98;71.79;98875.19;1685585;83;20317;-87
2021/11/24 12:28:02;;;;;;;;;;;;;;;6.00;71.71;98866.84;1695133;82;24846;-86
2021/11/24 12:30:40;;;;;;;;;;;;;;;5.97;71.62;98866.15;1686262;83;22016;-87
2021/11/24 12:33:05;;;;;;;;;;;;;;;5.99;71.54;98865.19;1615804;87;26389;-86
2021/11/24 12:35:33;;;;;;;;;;;;;;;6.04;71.53;98861.92;1613339;87;24443;-86
2021/11/24 12:38:00;;;;;;;;;;;;;;;6.08;71.51;98862.16;1626412;86;20242;-86
2021/11/24 12:40:27;;;;;;;;;;;;;;;6.07;71.47;98865.67;1637525;86;24803;-87
2021/11/24 12:42:57;;;;;;;;;;;;;;;6.10;71.43;98864.25;1632991;85;22080;-87
2021/11/24 12:45:23;;;;;;;;;;;;;;;6.08;71.39;98860.87;1643270;86;26350;-86
2021/11/24 12:48:00;;;;;;;;;;;;;;;6.10;71.34;98858.20;1635205;85;24610;-86
2021/11/24 12:50:27;;;;;;;;;;;;;;;6.12;71.31;98860.27;1651404;85;20484;-86
2021/11/24 12:52:57;;;;;;;;;;;;;;;6.14;71.26;98863.64;1628013;87;24763;-86
2021/11/24 12:55:23;;;;;;;;;;;;;;;6.12;71.23;98874.09;1629233;85;22109;-86
2021/11/24 12:57:50;;;;;;;;;;;;;;;6.11;71.14;98869.00;1635651;86;26147;-86
2021/11/24 13:00:24;;;;;;;;;;;;;;;6.11;71.08;98867.20;1634533;86;24568;-86
2021/11/24 13:02:51;;;;;;;;;;;;;;;6.09;71.00;98863.86;1629827;86;20225;-86
2021/11/24 13:05:17;;;;;;;;;;;;;;;6.06;70.91;98852.73;1630684;87;24757;-87